Hlavní strana
METAR-TAF:

METAR-TAF

Letiště :

Columbia, Jižní Karolína, Spojené státy americké

zeměpisná šířka: 33-58-15N, zeměpisná délka: 080-59-40W, výška: 64 m

Aktuální stav počasí

Zpráva byla vytvořena před 13 minutami, v 07:53 UTC
vítr z různých směrů 4 kt
Teplota -1°C
Vlhkost vzduchu 59%
Tlak 1029 hPa
Viditelnost: 16.1 km
Jasno

METAR: KCUB 210753Z AUTO VRB04KT 10SM CLR M01/M08 A3038 RMK AO2 SLP289 T10111083

Čas: 03:06 (08:06 UTC)

Předpověď počasí

Zpráva byla vytvořena před 2 hodinami a 45 minutami, v 05:21 UTC
Předpověď platná od 21 v 06 UTC do 22 v 06 UTC
vítr z různých směrů 4 kt
Viditelnost: 10 km
Skoro jasno ve výšce 6000 ft
Polojasno ve výšce 10000 ft
Od 21 v 1300 UTC
Severní vítr 10 kt s nárazy do 18 kt
Viditelnost: 10 km
Skoro jasno ve výšce 6000 ft
Polojasno ve výšce 10000 ft
Od 22 v 0000 UTC
Severní vítr 6 kt
Viditelnost: 10 km
Jasno

TAF: KCUB 210521Z 2106/2206 VRB04KT P6SM FEW060 SCT100 FM211300 01010G18KT P6SM FEW060 SCT100 FM220000 01006KT P6SM SKC

Stav a předpovědi počasí z více než 4 000 letišť (zprávy METAR a TAF).

Červené a žluté tečky na mapě představují dostupné meteorologické stanice.

Když kurzor umístíte na tečku, zobrazí se název stanice.

Pak kliknutím zobrazíte stav a předpověď počasí.

Chcete-li změnit mapu, kliknutím na zelené tlačítko se znaménkem +mapu přiblížíte, kliknutím na zelené tlačítko se znaménkem – mapu oddálíte a kliknutím na zelené šipky přejdete na sousední mapy.


METAR-TAF: